createdAt,value
2023-03-30T00:01:22.314Z,7.23
2023-03-30T00:03:50.934Z,7.24
2023-03-30T00:06:22.919Z,7.24
2023-03-30T00:08:57.427Z,7.25
2023-03-30T00:11:34.424Z,7.24
2023-03-30T00:14:02.714Z,7.23
2023-03-30T00:16:32.428Z,7.20
2023-03-30T00:27:04.732Z,7.16
2023-03-30T00:29:33.206Z,7.13
2023-03-30T00:32:02.093Z,7.12
2023-03-30T00:34:30.583Z,7.12
2023-03-30T00:36:58.958Z,7.12
2023-03-30T00:39:27.511Z,7.14
2023-03-30T00:41:55.920Z,7.16
2023-03-30T00:45:20.801Z,7.17
2023-03-30T00:47:59.422Z,7.20
2023-03-30T00:50:35.188Z,7.20
2023-03-30T00:53:11.544Z,7.22
2023-03-30T00:55:40.958Z,7.23
2023-03-30T00:58:12.566Z,7.24
2023-03-30T01:00:43.862Z,7.25
2023-03-30T01:03:30.457Z,7.25
2023-03-30T01:06:03.053Z,7.27
2023-03-30T01:08:35.005Z,7.28
2023-03-30T01:11:07.631Z,7.29
2023-03-30T01:13:41.635Z,7.29
2023-03-30T01:16:28.429Z,7.29
2023-03-30T01:19:44.005Z,7.29
2023-03-30T01:23:03.708Z,7.29
2023-03-30T01:25:57.191Z,7.27
2023-03-30T01:28:31.174Z,7.26
2023-03-30T01:31:11.628Z,7.25
2023-03-30T01:34:15.793Z,7.24
2023-03-30T01:36:59.540Z,7.23
2023-03-30T01:40:09.778Z,7.22
2023-03-30T01:42:55.646Z,7.22
2023-03-30T01:46:01.646Z,7.21
2023-03-30T01:48:49.932Z,7.19
2023-03-30T01:51:28.380Z,7.18
2023-03-30T01:54:13.432Z,7.17
2023-03-30T01:56:51.745Z,7.17
2023-03-30T02:00:17.987Z,7.16
2023-03-30T02:03:06.707Z,7.16
2023-03-30T02:05:37.131Z,7.15
2023-03-30T02:08:13.618Z,7.15
2023-03-30T02:10:45.107Z,7.15
2023-03-30T02:13:15.356Z,7.15
2023-03-30T02:15:50.292Z,7.15
2023-03-30T02:18:20.210Z,7.15
2023-03-30T02:20:49.503Z,7.15
2023-03-30T02:23:23.161Z,7.16
2023-03-30T02:25:51.490Z,7.16
2023-03-30T02:28:19.893Z,7.17
2023-03-30T02:30:48.329Z,7.19
2023-03-30T02:33:32.527Z,7.20
2023-03-30T02:36:17.791Z,7.21
2023-03-30T02:39:15.927Z,7.23
2023-03-30T02:42:21.477Z,7.25
2023-03-30T02:45:45.370Z,7.26
2023-03-30T02:48:37.190Z,7.28
2023-03-30T02:51:39.101Z,7.30
2023-03-30T02:54:18.329Z,7.33
2023-03-30T02:57:11.833Z,7.33
2023-03-30T02:59:51.792Z,7.35
2023-03-30T03:02:29.841Z,7.36
2023-03-30T03:04:58.567Z,7.38
2023-03-30T03:07:28.030Z,7.40
2023-03-30T03:09:56.413Z,7.42
2023-03-30T03:12:24.720Z,7.43
2023-03-30T03:14:54.036Z,7.44
2023-03-30T03:17:22.614Z,7.45
2023-03-30T03:19:51.202Z,7.47
2023-03-30T03:22:19.520Z,7.49
2023-03-30T03:24:47.791Z,7.51
2023-03-30T03:27:16.464Z,7.53
2023-03-30T03:29:44.905Z,7.55
2023-03-30T03:32:13.551Z,7.58
2023-03-30T03:34:44.813Z,7.60
2023-03-30T03:37:13.458Z,7.61
2023-03-30T03:39:41.798Z,7.62
2023-03-30T03:42:11.408Z,7.63
2023-03-30T03:44:40.674Z,7.64
2023-03-30T03:47:09.093Z,7.64
2023-03-30T03:49:38.009Z,7.65
2023-03-30T03:52:06.874Z,7.66
2023-03-30T03:54:35.316Z,7.66
2023-03-30T03:57:03.886Z,7.66
2023-03-30T03:59:32.655Z,7.66
2023-03-30T04:02:01.618Z,7.66
2023-03-30T04:04:30.852Z,7.65
2023-03-30T04:07:01.714Z,7.65
2023-03-30T04:09:30.141Z,7.63
2023-03-30T04:11:58.540Z,7.63
2023-03-30T04:14:27.061Z,7.63
2023-03-30T04:16:57.925Z,7.64
2023-03-30T04:19:27.684Z,7.63
2023-03-30T04:21:56.073Z,7.61
2023-03-30T04:24:29.813Z,7.59
2023-03-30T04:26:58.730Z,7.56
2023-03-30T04:29:27.223Z,7.58
2023-03-30T04:31:56.743Z,7.62
2023-03-30T04:34:26.794Z,7.66
2023-03-30T04:36:55.105Z,7.70
2023-03-30T04:39:23.911Z,7.71
2023-03-30T04:41:54.309Z,7.71
2023-03-30T04:44:23.139Z,7.70
2023-03-30T04:46:51.566Z,7.70
2023-03-30T04:49:20.165Z,7.69
2023-03-30T04:51:48.828Z,7.69
2023-03-30T04:54:17.336Z,7.69
2023-03-30T04:56:46.020Z,7.69
2023-03-30T04:59:14.587Z,7.68
2023-03-30T05:01:43.220Z,7.68
2023-03-30T05:04:11.660Z,7.67
2023-03-30T05:06:40.071Z,7.67
2023-03-30T05:09:08.510Z,7.67
2023-03-30T05:11:39.722Z,7.69
2023-03-30T05:14:08.430Z,7.72
2023-03-30T05:16:37.988Z,7.76
2023-03-30T05:19:09.342Z,7.79
2023-03-30T05:21:40.723Z,7.84
2023-03-30T05:24:13.986Z,7.89
2023-03-30T05:26:44.756Z,7.94
2023-03-30T05:29:15.193Z,7.98
2023-03-30T05:31:46.249Z,8.02
2023-03-30T05:34:16.564Z,8.06
2023-03-30T05:36:47.864Z,8.09
2023-03-30T05:39:18.536Z,8.13
2023-03-30T05:41:49.142Z,8.15
2023-03-30T05:44:22.469Z,8.18
2023-03-30T05:46:52.555Z,8.19
2023-03-30T05:49:22.045Z,8.23
2023-03-30T05:51:52.103Z,8.28
2023-03-30T05:54:27.369Z,8.35
2023-03-30T05:56:56.969Z,8.43
2023-03-30T05:59:26.125Z,8.51
2023-03-30T06:01:56.084Z,8.62
2023-03-30T06:04:26.716Z,8.74
2023-03-30T06:06:55.059Z,8.87
2023-03-30T06:09:24.137Z,9.00
2023-03-30T06:11:53.981Z,9.12
2023-03-30T06:14:22.764Z,9.22
2023-03-30T06:16:52.924Z,9.31
2023-03-30T06:19:24.285Z,9.38
2023-03-30T06:21:54.179Z,9.46
2023-03-30T06:24:23.533Z,9.55
2023-03-30T06:26:55.191Z,9.60
2023-03-30T06:29:24.082Z,9.66
2023-03-30T06:31:52.526Z,9.71
2023-03-30T06:34:21.320Z,9.77
2023-03-30T06:36:51.033Z,9.80
2023-03-30T06:39:21.953Z,9.85
2023-03-30T06:41:50.397Z,9.90
2023-03-30T06:44:20.195Z,9.94
2023-03-30T06:46:50.641Z,9.98
2023-03-30T06:49:18.537Z,10.01
2023-03-30T06:51:50.472Z,10.05
2023-03-30T06:54:20.468Z,10.11
2023-03-30T06:56:50.150Z,10.17
2023-03-30T06:59:20.815Z,10.24
2023-03-30T07:01:50.980Z,10.29
2023-03-30T07:04:20.703Z,10.34
2023-03-30T07:06:50.127Z,10.38
2023-03-30T07:09:18.604Z,10.43
2023-03-30T07:11:48.320Z,10.48
2023-03-30T07:14:18.386Z,10.54
2023-03-30T07:16:48.290Z,10.62
2023-03-30T07:19:16.753Z,10.70
2023-03-30T07:21:46.386Z,10.82
2023-03-30T07:24:16.758Z,10.97
2023-03-30T07:26:45.155Z,11.11
2023-03-30T07:29:15.674Z,11.23
2023-03-30T07:31:45.376Z,11.37
2023-03-30T07:34:17.078Z,11.49
2023-03-30T07:36:45.744Z,11.57
2023-03-30T07:39:14.103Z,11.60
2023-03-30T07:41:42.500Z,11.59
2023-03-30T07:44:11.454Z,11.58
2023-03-30T07:46:41.726Z,11.58
2023-03-30T07:49:11.232Z,11.60
2023-03-30T07:51:41.599Z,11.63
2023-03-30T07:54:10.562Z,11.71
2023-03-30T07:56:42.804Z,11.79
2023-03-30T07:59:14.537Z,11.86
2023-03-30T08:01:45.074Z,11.95
2023-03-30T08:04:14.165Z,12.08
2023-03-30T08:06:43.291Z,12.22
2023-03-30T08:09:12.430Z,12.45
2023-03-30T08:11:43.287Z,12.69
2023-03-30T08:14:11.929Z,12.93
2023-03-30T08:16:40.410Z,13.10
2023-03-30T08:19:09.110Z,13.16
2023-03-30T08:21:38.136Z,13.21
2023-03-30T08:26:34.376Z,13.39
2023-03-30T08:29:27.840Z,13.51
2023-03-30T08:32:39.016Z,13.60
2023-03-30T08:35:13.489Z,13.67
2023-03-30T08:37:42.289Z,13.73
2023-03-30T08:40:13.271Z,13.73
2023-03-30T08:43:04.340Z,13.73
2023-03-30T08:45:43.245Z,13.80
2023-03-30T08:48:26.159Z,13.90
2023-03-30T08:51:05.773Z,13.99
2023-03-30T08:53:41.067Z,14.11
2023-03-30T08:56:23.917Z,14.16
2023-03-30T08:59:24.843Z,14.12
2023-03-30T09:02:43.157Z,14.28
2023-03-30T09:05:31.940Z,14.53
2023-03-30T09:08:29.473Z,14.84
2023-03-30T09:11:09.671Z,15.17
2023-03-30T09:13:42.039Z,15.48
2023-03-30T09:16:49.525Z,15.70
2023-03-30T09:19:51.776Z,15.79
2023-03-30T09:22:21.791Z,15.68
2023-03-30T09:24:52.250Z,15.64
2023-03-30T09:27:47.890Z,15.72
2023-03-30T09:30:22.173Z,15.84
2023-03-30T09:33:44.154Z,15.88
2023-03-30T09:37:10.786Z,15.98
2023-03-30T09:39:41.487Z,16.08
2023-03-30T09:42:37.250Z,16.23
2023-03-30T09:45:21.541Z,16.45
2023-03-30T09:47:50.028Z,16.73
2023-03-30T09:50:24.522Z,17.00
2023-03-30T09:56:51.635Z,17.77
2023-03-30T09:59:37.872Z,18.19
2023-03-30T10:02:18.709Z,18.42
2023-03-30T10:04:53.339Z,18.49
2023-03-30T10:07:33.354Z,18.50
2023-03-30T10:10:21.553Z,18.48
2023-03-30T10:12:55.265Z,18.41
2023-03-30T10:15:31.032Z,18.32
2023-03-30T10:18:14.334Z,18.21
2023-03-30T10:21:18.526Z,18.09
2023-03-30T10:24:03.098Z,17.86
2023-03-30T10:26:36.816Z,17.64
2023-03-30T10:29:09.118Z,17.45
2023-03-30T10:31:44.391Z,17.24
2023-03-30T10:34:28.540Z,17.09
2023-03-30T10:36:58.519Z,17.01
2023-03-30T10:39:38.662Z,17.00
2023-03-30T10:42:10.145Z,16.99
2023-03-30T10:44:57.160Z,17.03
2023-03-30T10:47:54.440Z,17.16
2023-03-30T10:50:55.628Z,17.28
2023-03-30T10:54:11.656Z,17.45
2023-03-30T10:56:57.551Z,17.63
2023-03-30T11:00:13.364Z,17.77
2023-03-30T11:03:15.808Z,17.74
2023-03-30T11:05:52.012Z,17.63
2023-03-30T11:08:30.945Z,17.48
2023-03-30T11:11:14.109Z,17.35
2023-03-30T11:14:06.461Z,17.25
2023-03-30T11:17:11.596Z,17.32
2023-03-30T11:19:47.558Z,17.55
2023-03-30T11:22:46.888Z,17.82
2023-03-30T11:25:31.486Z,17.80
2023-03-30T11:28:30.023Z,17.65
2023-03-30T11:31:09.802Z,17.45
2023-03-30T11:33:58.672Z,17.28
2023-03-30T11:36:37.915Z,17.13
2023-03-30T11:39:28.838Z,17.04
2023-03-30T11:42:42.544Z,16.96
2023-03-30T11:45:45.454Z,16.94
2023-03-30T11:49:15.795Z,16.86
2023-03-30T11:52:11.436Z,16.71
2023-03-30T11:55:02.394Z,16.49
2023-03-30T11:58:20.293Z,16.23
2023-03-30T12:01:25.364Z,15.84
2023-03-30T12:04:34.888Z,15.45
2023-03-30T12:07:12.787Z,15.14
2023-03-30T12:10:03.343Z,14.95
2023-03-30T12:12:39.241Z,14.80
2023-03-30T12:16:03.522Z,14.71
2023-03-30T12:18:52.711Z,14.68
2023-03-30T12:22:16.359Z,14.68
2023-03-30T12:25:48.561Z,14.67
2023-03-30T12:28:54.984Z,14.62
2023-03-30T12:31:55.955Z,14.58
2023-03-30T12:34:29.051Z,14.55
2023-03-30T12:37:18.379Z,14.54
2023-03-30T12:40:22.388Z,14.52
2023-03-30T12:43:09.817Z,14.53
2023-03-30T12:46:03.358Z,14.55
2023-03-30T12:49:11.490Z,14.58
2023-03-30T12:52:16.127Z,14.62
2023-03-30T12:55:28.311Z,14.63
2023-03-30T12:58:47.465Z,14.61
2023-03-30T13:01:37.316Z,14.58
2023-03-30T13:04:10.731Z,14.54
2023-03-30T13:12:52.453Z,14.62
2023-03-30T13:19:32.972Z,14.69
2023-03-30T13:22:32.403Z,14.73
2023-03-30T13:25:44.135Z,14.77
2023-03-30T13:28:51.697Z,14.82
2023-03-30T13:31:42.865Z,14.84
2023-03-30T13:35:03.668Z,14.86
2023-03-30T13:38:25.495Z,14.88
2023-03-30T13:41:44.830Z,14.89
2023-03-30T13:45:17.848Z,14.89
2023-03-30T13:48:53.957Z,14.89
2023-03-30T13:54:31.481Z,14.93
2023-03-30T13:57:10.300Z,14.97
2023-03-30T13:59:46.461Z,14.99
2023-03-30T14:02:23.784Z,15.00
2023-03-30T14:04:52.564Z,15.03
2023-03-30T14:07:24.549Z,15.05
2023-03-30T14:10:04.950Z,15.05
2023-03-30T14:12:39.364Z,15.06
2023-03-30T14:15:43.709Z,15.06
2023-03-30T14:18:24.696Z,15.08
2023-03-30T14:21:01.562Z,15.08
2023-03-30T14:23:38.828Z,15.09
2023-03-30T14:26:28.953Z,15.08
2023-03-30T14:31:56.814Z,15.05
2023-03-30T14:34:36.099Z,15.03
2023-03-30T14:37:10.474Z,14.97
2023-03-30T14:39:43.976Z,14.91
2023-03-30T14:42:34.144Z,14.85
2023-03-30T14:45:12.773Z,14.78
2023-03-30T14:47:41.570Z,14.72
2023-03-30T14:50:17.190Z,14.67
2023-03-30T14:52:47.761Z,14.63
2023-03-30T14:55:26.848Z,14.56
2023-03-30T14:57:57.493Z,14.51
2023-03-30T15:00:26.292Z,14.49
2023-03-30T15:03:00.712Z,14.47
2023-03-30T15:05:36.756Z,14.47
2023-03-30T15:08:52.149Z,14.52
2023-03-30T15:11:27.376Z,14.54
2023-03-30T15:14:03.054Z,14.53
2023-03-30T15:16:34.054Z,14.48
2023-03-30T15:25:35.776Z,14.23
2023-03-30T15:28:11.788Z,14.16
2023-03-30T15:30:43.981Z,14.08
2023-03-30T15:33:38.220Z,14.01
2023-03-30T15:36:25.732Z,13.92
2023-03-30T15:39:00.723Z,13.84
2023-03-30T15:41:48.951Z,13.77
2023-03-30T15:44:22.389Z,13.71
2023-03-30T15:47:00.413Z,13.66
2023-03-30T15:49:48.630Z,13.62
2023-03-30T15:52:24.644Z,13.59
2023-03-30T15:54:55.415Z,13.56
2023-03-30T15:57:29.555Z,13.54
2023-03-30T16:00:05.263Z,13.51
2023-03-30T16:02:41.639Z,13.49
2023-03-30T16:05:20.806Z,13.46
2023-03-30T16:07:51.190Z,13.43
2023-03-30T16:10:27.215Z,13.38
2023-03-30T16:12:58.457Z,13.35
2023-03-30T16:15:31.553Z,13.32
2023-03-30T16:18:00.725Z,13.28
2023-03-30T16:20:32.790Z,13.24
2023-03-30T16:23:01.520Z,13.23
2023-03-30T16:25:44.283Z,13.22
2023-03-30T16:28:17.630Z,13.19
2023-03-30T16:30:49.046Z,13.18
2023-03-30T16:33:17.424Z,13.20
2023-03-30T16:35:46.333Z,13.39
2023-03-30T16:38:18.979Z,13.52
2023-03-30T16:40:55.020Z,13.72
2023-03-30T16:43:23.596Z,14.03
2023-03-30T16:45:51.939Z,14.81
2023-03-30T16:48:20.345Z,15.32
2023-03-30T16:50:54.228Z,15.65
2023-03-30T16:53:22.717Z,15.80
2023-03-30T16:55:51.261Z,15.81
2023-03-30T16:58:19.689Z,15.64
2023-03-30T17:00:51.600Z,15.51
2023-03-30T17:03:20.597Z,15.31
2023-03-30T17:05:51.961Z,15.11
2023-03-30T17:08:29.102Z,14.92
2023-03-30T17:11:01.360Z,14.74
2023-03-30T17:13:30.856Z,14.59
2023-03-30T17:16:03.143Z,14.44
2023-03-30T17:18:32.465Z,14.30
2023-03-30T17:21:01.664Z,14.16
2023-03-30T17:23:32.368Z,14.05
2023-03-30T17:26:02.037Z,13.93
2023-03-30T17:28:33.778Z,13.80
2023-03-30T17:31:09.159Z,13.66
2023-03-30T17:33:40.163Z,13.54
2023-03-30T17:36:22.568Z,13.44
2023-03-30T17:38:52.286Z,13.32
2023-03-30T17:41:21.314Z,13.24
2023-03-30T17:43:49.695Z,13.21
2023-03-30T17:46:20.013Z,13.22
2023-03-30T17:48:51.222Z,13.23
2023-03-30T17:51:19.675Z,13.24
2023-03-30T17:53:48.092Z,13.23
2023-03-30T17:56:19.017Z,13.22
2023-03-30T17:58:50.340Z,13.23
2023-03-30T18:01:18.747Z,13.23
2023-03-30T18:03:50.087Z,13.22
2023-03-30T18:06:18.631Z,13.22
2023-03-30T18:08:48.598Z,13.23
2023-03-30T18:11:16.953Z,13.23
2023-03-30T18:13:45.328Z,13.24
2023-03-30T18:16:17.986Z,13.24
2023-03-30T18:19:00.426Z,13.27
2023-03-30T18:21:41.552Z,13.28
2023-03-30T18:26:53.013Z,13.29
2023-03-30T18:29:22.173Z,13.27
2023-03-30T18:31:50.632Z,13.26
2023-03-30T18:34:22.556Z,13.23
2023-03-30T18:36:51.727Z,13.14
2023-03-30T18:39:21.831Z,13.05
2023-03-30T18:41:50.475Z,12.97
2023-03-30T18:44:19.775Z,12.91
2023-03-30T18:46:51.884Z,12.89
2023-03-30T18:49:22.856Z,12.89
2023-03-30T18:54:57.472Z,12.89
2023-03-30T18:57:27.190Z,12.89
2023-03-30T18:59:57.926Z,12.90
2023-03-30T19:02:36.291Z,12.92
2023-03-30T19:05:10.114Z,12.94
2023-03-30T19:07:38.972Z,12.95
2023-03-30T19:10:12.619Z,12.97
2023-03-30T19:12:43.636Z,12.99
2023-03-30T19:15:29.530Z,13.01
2023-03-30T19:17:57.995Z,13.03
2023-03-30T19:20:29.014Z,13.03
2023-03-30T19:22:58.376Z,13.03
2023-03-30T19:25:28.320Z,13.04
2023-03-30T19:28:04.012Z,13.08
2023-03-30T19:30:39.262Z,13.11
2023-03-30T19:33:12.906Z,13.13
2023-03-30T19:35:42.281Z,13.13
2023-03-30T19:38:10.866Z,13.10
2023-03-30T19:40:40.514Z,13.04
2023-03-30T19:43:10.273Z,12.88
2023-03-30T19:45:42.267Z,12.63
2023-03-30T19:48:13.911Z,12.38
2023-03-30T19:50:42.875Z,12.15
2023-03-30T19:53:12.696Z,11.94
2023-03-30T19:55:46.102Z,11.78
2023-03-30T19:58:27.292Z,11.63
2023-03-30T20:00:57.637Z,11.49
2023-03-30T20:03:27.149Z,11.37
2023-03-30T20:05:56.600Z,11.27
2023-03-30T20:08:25.493Z,11.17
2023-03-30T20:10:54.730Z,11.10
2023-03-30T20:13:24.100Z,11.04
2023-03-30T20:15:56.266Z,11.00
2023-03-30T20:18:24.915Z,10.96
2023-03-30T20:20:53.848Z,10.92
2023-03-30T20:23:22.256Z,10.90
2023-03-30T20:25:54.255Z,10.87
2023-03-30T20:28:22.674Z,10.84
2023-03-30T20:30:56.074Z,10.82
2023-03-30T20:33:24.658Z,10.79
2023-03-30T20:35:53.780Z,10.77
2023-03-30T20:38:22.132Z,10.74
2023-03-30T20:40:59.342Z,10.72
2023-03-30T20:43:27.913Z,10.69
2023-03-30T20:46:02.586Z,10.66
2023-03-30T20:48:39.210Z,10.64
2023-03-30T20:51:13.749Z,10.60
2023-03-30T20:53:42.463Z,10.56
2023-03-30T21:09:52.493Z,10.20
2023-03-30T21:12:21.008Z,10.11
2023-03-30T21:14:49.365Z,10.05
2023-03-30T21:17:17.759Z,10.00
2023-03-30T21:19:46.161Z,9.95
2023-03-30T21:22:14.486Z,9.89
2023-03-30T21:24:42.968Z,9.85
2023-03-30T21:27:11.276Z,9.80
2023-03-30T21:29:39.721Z,9.77
2023-03-30T21:32:08.098Z,9.73
2023-03-30T21:34:36.397Z,9.68
2023-03-30T21:37:04.826Z,9.65
2023-03-30T21:39:33.222Z,9.60
2023-03-30T21:42:01.647Z,9.57
2023-03-30T21:44:34.100Z,9.53
2023-03-30T21:47:02.482Z,9.47
2023-03-30T21:49:31.263Z,9.43
2023-03-30T21:51:59.624Z,9.40
2023-03-30T21:54:28.085Z,9.35
2023-03-30T21:56:56.421Z,9.31
2023-03-30T21:59:24.911Z,9.28
2023-03-30T22:01:53.263Z,9.26
2023-03-30T22:04:21.596Z,9.26
2023-03-30T22:06:49.904Z,9.27
2023-03-30T22:09:18.227Z,9.29
2023-03-30T22:11:46.564Z,9.32
2023-03-30T22:14:14.888Z,9.35
2023-03-30T22:16:43.280Z,9.35
2023-03-30T22:19:11.710Z,9.37
2023-03-30T22:21:40.130Z,9.37
2023-03-30T22:24:11.205Z,9.37
2023-03-30T22:26:40.247Z,9.36
2023-03-30T22:29:08.659Z,9.35
2023-03-30T22:31:37.083Z,9.33
2023-03-30T22:34:05.643Z,9.31
2023-03-30T22:36:34.241Z,9.29
2023-03-30T22:39:04.198Z,9.26
2023-03-30T22:41:32.523Z,9.23
2023-03-30T22:44:01.089Z,9.19
2023-03-30T22:46:29.532Z,9.15
2023-03-30T22:48:58.173Z,9.11
2023-03-30T22:51:27.016Z,9.07
2023-03-30T22:53:58.309Z,9.04
2023-03-30T22:56:29.858Z,9.01
2023-03-30T22:59:00.801Z,8.98
2023-03-30T23:01:32.577Z,8.95
2023-03-30T23:04:01.800Z,8.91
2023-03-30T23:06:31.874Z,8.88
2023-03-30T23:09:04.783Z,8.84
2023-03-30T23:11:34.243Z,8.80
2023-03-30T23:14:09.959Z,8.76
2023-03-30T23:16:38.425Z,8.73
2023-03-30T23:19:08.107Z,8.70
2023-03-30T23:21:36.484Z,8.67
2023-03-30T23:24:11.320Z,8.65
2023-03-30T23:26:39.739Z,8.63
2023-03-30T23:29:08.062Z,8.62
2023-03-30T23:31:36.643Z,8.62
2023-03-30T23:34:05.126Z,8.63
2023-03-30T23:36:34.901Z,8.65
2023-03-30T23:39:03.625Z,8.67
2023-03-30T23:41:32.026Z,8.70
2023-03-30T23:44:00.657Z,8.74
2023-03-30T23:46:29.773Z,8.77
2023-03-30T23:48:58.531Z,8.80
2023-03-30T23:51:27.052Z,8.84
2023-03-30T23:53:56.762Z,8.89
2023-03-30T23:56:27.639Z,8.93
2023-03-30T23:58:56.811Z,8.97
